Time;durP1;ratioP1;P1;durP2;ratioP2;P2;SDS_P1;SDS_P2;PMS_P1;PMS_P2;Temp;Humidity;BMP_temperature;BMP_pressure;BME280_temperature;BME280_humidity;BME280_pressure;Samples;Min_cycle;Max_cycle;Signal;HPM_P1;HPM_P2
2023/10/01 00:01:51;;;;;;;7.57;2.57;;;14.50;99.90;;;;;;5061715;28;20187;-63
2023/10/01 00:04:18;;;;;;;7.03;3.03;;;14.50;99.90;;;;;;5051636;28;20341;-70
2023/10/01 00:06:45;;;;;;;5.63;2.70;;;14.50;99.90;;;;;;5060612;28;20668;-67
2023/10/01 00:09:19;;;;;;;7.73;2.93;;;14.50;99.90;;;;;;5058811;28;20195;-71
2023/10/01 00:11:46;;;;;;;6.70;2.53;;;14.50;99.90;;;;;;5034332;28;20332;-68
2023/10/01 00:14:16;;;;;;;4.07;2.10;;;14.50;99.90;;;;;;5057909;28;20199;-70
2023/10/01 00:16:43;;;;;;;5.60;2.47;;;14.50;99.90;;;;;;5060961;28;20198;-67
2023/10/01 00:19:11;;;;;;;3.57;2.70;;;14.50;99.90;;;;;;5051686;28;21859;-68
2023/10/01 00:21:38;;;;;;;5.27;2.33;;;14.50;99.90;;;;;;5063197;28;20191;-66
2023/10/01 00:24:06;;;;;;;5.63;2.33;;;14.50;99.90;;;;;;5056023;28;20191;-68
2023/10/01 00:26:36;;;;;;;10.00;2.47;;;14.50;99.90;;;;;;5032906;28;20221;-67
2023/10/01 00:29:03;;;;;;;8.17;2.43;;;14.50;99.90;;;;;;5063159;28;20213;-67
2023/10/01 00:31:30;;;;;;;4.00;2.23;;;14.60;99.90;;;;;;5060835;28;20215;-67
2023/10/01 00:33:58;;;;;;;5.63;2.47;;;14.50;99.90;;;;;;5054788;28;20267;-67
2023/10/01 00:36:25;;;;;;;6.60;2.70;;;14.50;99.90;;;;;;5050957;28;20207;-67
2023/10/01 00:38:53;;;;;;;5.33;2.50;;;14.50;99.90;;;;;;5056356;28;20214;-67
2023/10/01 00:41:20;;;;;;;4.40;2.30;;;14.50;99.90;;;;;;5031619;28;20195;-67
2023/10/01 00:43:48;;;;;;;3.90;2.47;;;14.50;99.90;;;;;;5071520;28;20253;-66
2023/10/01 00:46:15;;;;;;;9.27;2.60;;;14.50;99.90;;;;;;5062802;28;20329;-66
2023/10/01 00:48:42;;;;;;;7.63;2.20;;;14.60;99.90;;;;;;5071960;28;20271;-67
2023/10/01 00:51:11;;;;;;;10.60;2.00;;;14.50;99.90;;;;;;5050332;28;20252;-68
2023/10/01 00:53:38;;;;;;;3.47;2.30;;;14.50;99.90;;;;;;5064531;28;20203;-67
2023/10/01 00:56:06;;;;;;;3.47;1.83;;;14.50;99.90;;;;;;5062361;28;20871;-69
2023/10/01 00:58:33;;;;;;;3.47;2.17;;;14.50;99.90;;;;;;5025545;28;20241;-64
2023/10/01 01:01:04;;;;;;;4.70;2.17;;;14.50;99.90;;;;;;5059897;28;20185;-65
2023/10/01 01:03:32;;;;;;;5.97;1.80;;;14.50;99.90;;;;;;5064657;28;20199;-67
2023/10/01 01:06:12;;;;;;;4.10;2.23;;;14.50;99.90;;;;;;5045878;28;20190;-65
2023/10/01 01:08:52;;;;;;;6.90;2.00;;;14.50;99.90;;;;;;5057950;28;20696;-63
2023/10/01 01:11:21;;;;;;;3.13;2.03;;;14.50;99.90;;;;;;5059851;28;20260;-66
2023/10/01 01:13:49;;;;;;;8.93;2.43;;;14.50;99.90;;;;;;5020403;28;20297;-65
2023/10/01 01:16:19;;;;;;;6.63;2.80;;;14.50;99.90;;;;;;5060982;28;20971;-66
2023/10/01 01:18:47;;;;;;;5.00;1.90;;;14.50;99.90;;;;;;5059305;28;20219;-66
2023/10/01 01:21:14;;;;;;;5.77;2.33;;;14.50;99.90;;;;;;5055749;28;20195;-66
2023/10/01 01:23:45;;;;;;;6.60;1.87;;;14.50;99.90;;;;;;5046318;28;20203;-64
2023/10/01 01:26:13;;;;;;;4.70;2.00;;;14.50;99.90;;;;;;5059657;28;20256;-66
2023/10/01 01:28:41;;;;;;;4.23;2.17;;;14.50;99.90;;;;;;5027744;28;20693;-65
2023/10/01 01:31:10;;;;;;;3.13;2.03;;;14.50;99.90;;;;;;5055279;28;20272;-69
2023/10/01 01:33:44;;;;;;;8.40;2.57;;;14.50;99.90;;;;;;5061667;28;20741;-66
2023/10/01 01:36:12;;;;;;;5.33;2.00;;;14.50;99.90;;;;;;5053702;28;20292;-68
2023/10/01 01:39:09;;;;;;;6.70;1.87;;;14.50;99.90;;;;;;5051276;28;20222;-64
2023/10/01 01:41:42;;;;;;;5.23;2.40;;;14.50;99.90;;;;;;5059382;28;20244;-67
2023/10/01 01:44:11;;;;;;;5.73;2.33;;;14.50;99.90;;;;;;5026623;28;20287;-70
2023/10/01 01:46:47;;;;;;;4.70;2.30;;;14.50;99.90;;;;;;5059434;28;20252;-71
2023/10/01 01:49:17;;;;;;;5.43;2.20;;;14.50;99.90;;;;;;5067760;28;21044;-65
2023/10/01 01:51:57;;;;;;;3.93;1.90;;;14.50;99.90;;;;;;5067555;28;20217;-62
2023/10/01 01:54:31;;;;;;;3.00;2.40;;;14.50;99.90;;;;;;5056382;28;20542;-64
2023/10/01 01:56:58;;;;;;;6.30;2.00;;;14.50;99.90;;;;;;5057782;28;20226;-64
2023/10/01 01:59:27;;;;;;;6.97;2.37;;;14.50;99.90;;;;;;5035804;28;20301;-66
2023/10/01 02:01:56;;;;;;;6.43;2.23;;;14.50;99.90;;;;;;5053738;28;20295;-64
2023/10/01 02:04:23;;;;;;;3.67;2.17;;;14.50;99.90;;;;;;5064220;28;20241;-65
2023/10/01 02:06:52;;;;;;;4.70;2.13;;;14.50;99.90;;;;;;5064635;28;20589;-64
2023/10/01 02:09:20;;;;;;;7.57;2.50;;;14.50;99.90;;;;;;5045491;28;20206;-64
2023/10/01 02:11:50;;;;;;;6.63;2.90;;;14.50;99.90;;;;;;5058764;28;20271;-65
2023/10/01 02:14:31;;;;;;;7.90;2.70;;;14.50;99.90;;;;;;5051297;28;20194;-64
2023/10/01 02:17:13;;;;;;;5.47;2.33;;;14.50;99.90;;;;;;5061507;28;20199;-66
2023/10/01 02:19:40;;;;;;;8.20;2.60;;;14.50;99.90;;;;;;5058428;28;20199;-66
2023/10/01 02:22:08;;;;;;;7.13;2.50;;;14.50;99.90;;;;;;5062449;28;20246;-66
2023/10/01 02:24:44;;;;;;;5.13;2.93;;;14.50;99.90;;;;;;5054007;28;20275;-64
2023/10/01 02:27:13;;;;;;;5.30;2.33;;;14.50;99.90;;;;;;5065323;28;20218;-64
2023/10/01 02:30:11;;;;;;;4.77;2.63;;;14.40;99.90;;;;;;5030522;28;21652;-65
2023/10/01 02:32:34;;;;;;;5.67;2.57;;;14.40;99.90;;;;;;5061127;28;20883;-66
2023/10/01 02:35:33;;;;;;;5.80;2.57;;;14.40;99.90;;;;;;5063033;28;20233;-67
2023/10/01 02:37:47;;;;;;;3.67;2.63;;;14.50;99.90;;;;;;5061237;28;20222;-66
2023/10/01 02:40:18;;;;;;;7.23;2.90;;;14.50;99.90;;;;;;5054972;28;20264;-63
2023/10/01 02:42:45;;;;;;;6.23;2.67;;;14.50;99.90;;;;;;5061049;28;20407;-66
2023/10/01 02:45:31;;;;;;;5.53;3.33;;;14.50;99.90;;;;;;5061676;28;20203;-62
2023/10/01 02:50:40;;;;;;;3.70;2.50;;;14.50;99.90;;;;;;5052180;28;20315;-64
2023/10/01 02:53:06;;;;;;;7.97;3.20;;;14.50;99.90;;;;;;5058176;28;20205;-63
2023/10/01 02:55:32;;;;;;;8.20;2.90;;;14.50;99.90;;;;;;5054794;28;20190;-62
2023/10/01 02:58:17;;;;;;;4.70;3.23;;;14.50;99.90;;;;;;5064732;28;20276;-64
2023/10/01 03:00:45;;;;;;;6.30;3.10;;;14.50;99.90;;;;;;5062457;28;20178;-66
2023/10/01 03:03:15;;;;;;;6.13;2.80;;;14.40;99.90;;;;;;5033525;28;20202;-63
2023/10/01 03:05:46;;;;;;;6.53;2.87;;;14.40;99.90;;;;;;5064101;28;20254;-65
2023/10/01 03:11:08;;;;;;;7.70;3.20;;;14.40;99.90;;;;;;5052870;28;20242;-64
2023/10/01 03:13:36;;;;;;;7.03;3.33;;;14.40;99.90;;;;;;5063312;28;20197;-63
2023/10/01 03:18:49;;;;;;;9.90;3.20;;;14.40;99.90;;;;;;5056002;28;20999;-65
2023/10/01 03:22:08;;;;;;;9.90;3.90;;;14.40;99.90;;;;;;5067024;28;20186;-62
2023/10/01 03:24:10;;;;;;;6.70;4.10;;;14.50;99.90;;;;;;5067252;28;20195;-66
2023/10/01 03:26:44;;;;;;;9.27;3.57;;;14.50;99.90;;;;;;5050273;28;20204;-65
2023/10/01 03:29:17;;;;;;;6.50;4.37;;;14.40;99.90;;;;;;5064659;28;20221;-66
2023/10/01 03:31:46;;;;;;;7.40;3.90;;;14.50;99.90;;;;;;5037721;28;21001;-67
2023/10/01 03:34:28;;;;;;;6.73;3.57;;;14.50;99.90;;;;;;5068675;28;20203;-66
2023/10/01 03:36:58;;;;;;;7.37;4.10;;;14.40;99.90;;;;;;5067356;28;20191;-67
2023/10/01 03:39:26;;;;;;;7.03;4.03;;;14.50;99.90;;;;;;5066478;28;20201;-66
2023/10/01 03:42:10;;;;;;;10.27;4.60;;;14.50;99.90;;;;;;5068045;28;21211;-65
2023/10/01 03:47:29;;;;;;;12.10;4.50;;;14.50;99.90;;;;;;5040773;28;20226;-64
2023/10/01 03:49:57;;;;;;;8.43;4.90;;;14.50;99.90;;;;;;5061253;28;20202;-64
2023/10/01 03:52:29;;;;;;;6.77;4.90;;;14.50;99.90;;;;;;5067037;28;20255;-65
2023/10/01 03:55:15;;;;;;;8.03;4.40;;;14.50;99.90;;;;;;5065323;28;20198;-65
2023/10/01 03:57:55;;;;;;;11.40;5.20;;;14.50;99.90;;;;;;5059995;28;20301;-66
2023/10/01 04:00:33;;;;;;;9.70;4.80;;;14.50;99.90;;;;;;5047347;28;20204;-67
2023/10/01 04:03:00;;;;;;;5.77;4.03;;;14.50;99.90;;;;;;5064037;28;20199;-65
2023/10/01 04:05:33;;;;;;;10.33;5.13;;;14.50;99.90;;;;;;5026427;28;20743;-66
2023/10/01 04:08:06;;;;;;;9.93;4.40;;;14.50;99.90;;;;;;5059284;28;20619;-65
2023/10/01 04:10:34;;;;;;;8.03;5.07;;;14.50;99.90;;;;;;5056244;28;20844;-66
2023/10/01 04:13:12;;;;;;;12.17;4.57;;;14.40;99.90;;;;;;5062108;28;20321;-66
2023/10/01 04:15:46;;;;;;;6.70;4.70;;;14.40;99.90;;;;;;5050487;28;20229;-65
2023/10/01 04:18:23;;;;;;;10.63;5.33;;;14.40;99.90;;;;;;5053009;28;20709;-65
2023/10/01 04:23:34;;;;;;;14.33;6.50;;;14.40;99.90;;;;;;5059770;28;20217;-64
2023/10/01 04:26:04;;;;;;;14.20;5.73;;;14.40;99.90;;;;;;5064918;28;20201;-64
2023/10/01 04:28:31;;;;;;;10.87;5.07;;;14.40;99.90;;;;;;5061009;28;20253;-66
2023/10/01 04:31:03;;;;;;;9.37;5.27;;;14.40;99.90;;;;;;5049570;28;20700;-65
2023/10/01 04:33:30;;;;;;;9.00;4.87;;;14.40;99.90;;;;;;5031370;28;22010;-63
2023/10/01 04:35:58;;;;;;;7.30;5.43;;;14.40;99.90;;;;;;5063705;28;20207;-66
2023/10/01 04:38:28;;;;;;;8.60;5.30;;;14.40;99.90;;;;;;5059975;28;20214;-63
2023/10/01 04:40:55;;;;;;;9.43;5.13;;;14.40;99.90;;;;;;5061339;28;20604;-67
2023/10/01 04:43:25;;;;;;;9.30;5.60;;;14.40;99.90;;;;;;5058605;28;20208;-65
2023/10/01 04:45:52;;;;;;;13.67;5.97;;;14.40;99.90;;;;;;5054837;28;20287;-66
2023/10/01 04:48:23;;;;;;;8.10;5.10;;;14.40;99.90;;;;;;5067392;28;20478;-63
2023/10/01 04:50:53;;;;;;;12.13;5.87;;;14.40;99.90;;;;;;5028268;28;20207;-68
2023/10/01 04:53:21;;;;;;;10.37;5.60;;;14.40;99.90;;;;;;5063323;28;20208;-63
2023/10/01 04:56:00;;;;;;;10.37;5.90;;;14.30;99.90;;;;;;5069892;28;20785;-67
2023/10/01 04:58:29;;;;;;;8.87;5.50;;;14.30;99.90;;;;;;5064365;28;20286;-64
2023/10/01 05:00:56;;;;;;;10.43;5.80;;;14.30;99.90;;;;;;5054947;28;20657;-66
2023/10/01 05:03:38;;;;;;;11.23;6.50;;;14.30;99.90;;;;;;5063247;28;20194;-65
2023/10/01 05:06:09;;;;;;;10.47;5.97;;;14.30;99.90;;;;;;5034725;28;20207;-67
2023/10/01 05:08:42;;;;;;;13.37;7.13;;;14.30;99.90;;;;;;5057636;28;20208;-65
2023/10/01 05:11:11;;;;;;;10.33;6.40;;;14.30;99.90;;;;;;5062969;28;20317;-64
2023/10/01 05:13:40;;;;;;;11.97;6.80;;;14.30;99.90;;;;;;5063513;28;20278;-65
2023/10/01 05:16:07;;;;;;;11.27;6.10;;;14.30;99.90;;;;;;5053272;28;20209;-64
2023/10/01 05:18:37;;;;;;;13.00;7.13;;;14.30;99.90;;;;;;5058756;28;20219;-64
2023/10/01 05:21:12;;;;;;;12.13;7.00;;;14.30;99.90;;;;;;5034850;28;20207;-64
2023/10/01 05:23:39;;;;;;;10.27;7.07;;;14.30;99.90;;;;;;5060715;28;20190;-64
2023/10/01 05:26:06;;;;;;;12.93;7.00;;;14.30;99.90;;;;;;5059098;28;20187;-64
2023/10/01 05:28:34;;;;;;;12.60;6.87;;;14.30;99.90;;;;;;5055196;28;20802;-65
2023/10/01 05:31:05;;;;;;;12.77;6.97;;;14.30;99.90;;;;;;5064283;28;20194;-64
2023/10/01 05:33:33;;;;;;;9.73;6.93;;;14.30;99.90;;;;;;5048954;28;20187;-65
2023/10/01 05:36:04;;;;;;;9.83;7.20;;;14.30;99.90;;;;;;5060246;28;20212;-66
2023/10/01 05:38:34;;;;;;;13.33;6.83;;;14.30;99.90;;;;;;5025691;28;20217;-64
2023/10/01 05:41:03;;;;;;;17.80;8.03;;;14.30;99.90;;;;;;5064609;28;20223;-65
2023/10/01 05:43:35;;;;;;;15.23;7.60;;;14.30;99.90;;;;;;5059828;28;20290;-65
2023/10/01 05:46:02;;;;;;;13.20;7.50;;;14.30;99.90;;;;;;5066296;28;20206;-63
2023/10/01 05:48:34;;;;;;;13.87;8.40;;;14.40;99.90;;;;;;5052254;28;20615;-64
2023/10/01 05:51:03;;;;;;;14.40;7.50;;;14.40;99.90;;;;;;5062604;28;20269;-65
2023/10/01 05:53:30;;;;;;;12.87;7.10;;;14.40;99.90;;;;;;5025251;28;21568;-66
2023/10/01 05:56:05;;;;;;;12.27;8.30;;;14.40;99.90;;;;;;5058887;28;20199;-65
2023/10/01 05:58:32;;;;;;;11.37;7.63;;;14.40;99.90;;;;;;5064184;28;20998;-62
2023/10/01 06:01:05;;;;;;;11.60;8.30;;;14.40;99.90;;;;;;5056568;28;20260;-62
2023/10/01 06:03:33;;;;;;;13.90;7.80;;;14.40;99.90;;;;;;5053712;28;20838;-63
2023/10/01 06:06:08;;;;;;;11.73;8.13;;;14.40;99.90;;;;;;5054426;28;20223;-63
2023/10/01 06:08:46;;;;;;;16.30;7.97;;;14.40;99.90;;;;;;5034047;28;21871;-63
2023/10/01 06:11:15;;;;;;;18.10;8.40;;;14.40;99.90;;;;;;5067159;28;20194;-63
2023/10/01 06:13:48;;;;;;;14.53;7.70;;;14.40;99.90;;;;;;5062126;28;20232;-61
2023/10/01 06:16:22;;;;;;;14.83;8.87;;;14.40;99.90;;;;;;5064570;28;20287;-64
2023/10/01 06:18:51;;;;;;;11.17;8.07;;;14.40;99.90;;;;;;5060025;28;20218;-64
2023/10/01 06:21:20;;;;;;;11.90;8.40;;;14.50;99.90;;;;;;5055793;28;20218;-66
2023/10/01 06:23:50;;;;;;;10.80;7.77;;;14.50;99.90;;;;;;5066709;28;20186;-65
2023/10/01 06:26:29;;;;;;;15.00;9.17;;;14.50;99.90;;;;;;5030790;28;20198;-67
2023/10/01 06:28:56;;;;;;;10.77;8.53;;;14.50;99.90;;;;;;5065606;28;20241;-65
2023/10/01 06:31:23;;;;;;;13.53;8.50;;;14.50;99.90;;;;;;5061679;28;20221;-64
2023/10/01 06:33:53;;;;;;;12.03;7.80;;;14.50;99.90;;;;;;5058909;28;20214;-62
2023/10/01 06:36:23;;;;;;;15.53;8.53;;;14.50;99.90;;;;;;5049697;28;20641;-73
2023/10/01 06:38:53;;;;;;;12.13;8.53;;;14.50;99.90;;;;;;5067865;28;20226;-64
2023/10/01 06:41:25;;;;;;;14.57;8.23;;;14.50;99.90;;;;;;5034152;28;20199;-71
2023/10/01 06:43:55;;;;;;;10.93;8.77;;;14.50;99.90;;;;;;5064586;28;20191;-67
2023/10/01 06:46:24;;;;;;;12.30;8.13;;;14.50;99.90;;;;;;5060026;28;20246;-67
2023/10/01 06:48:52;;;;;;;11.90;8.37;;;14.60;99.90;;;;;;5050068;28;20230;-45
2023/10/01 06:51:21;;;;;;;11.40;8.30;;;14.60;99.90;;;;;;5047446;28;20641;-48
2023/10/01 06:53:53;;;;;;;12.00;8.50;;;14.60;99.90;;;;;;5057816;28;20283;-47
2023/10/01 06:56:21;;;;;;;11.27;9.10;;;14.60;99.90;;;;;;5032205;28;20205;-54
2023/10/01 07:01:42;;;;;;;14.27;8.90;;;14.70;99.90;;;;;;5060578;28;20251;-46
2023/10/01 07:04:09;;;;;;;11.57;8.70;;;14.80;99.90;;;;;;5062550;28;20543;-49
2023/10/01 07:06:39;;;;;;;14.23;9.23;;;14.80;99.90;;;;;;5043919;28;20208;-44
2023/10/01 07:09:23;;;;;;;13.63;8.97;;;14.80;99.90;;;;;;5065455;28;20214;-53
2023/10/01 07:11:50;;;;;;;14.67;9.03;;;14.80;99.90;;;;;;5035697;28;20533;-43
2023/10/01 07:14:29;;;;;;;15.03;9.63;;;14.90;99.90;;;;;;5064819;28;20285;-50
2023/10/01 07:16:56;;;;;;;16.80;8.70;;;14.90;99.90;;;;;;5068333;28;20287;-43
2023/10/01 07:19:23;;;;;;;15.70;9.93;;;15.00;99.90;;;;;;5056116;28;20504;-50
2023/10/01 07:21:56;;;;;;;14.73;9.47;;;15.00;99.90;;;;;;5065516;28;20230;-42
2023/10/01 07:24:24;;;;;;;13.00;8.67;;;15.00;99.90;;;;;;5050182;28;20204;-45
2023/10/01 07:26:51;;;;;;;12.80;9.20;;;15.00;99.90;;;;;;5036892;28;20210;-42
2023/10/01 07:29:19;;;;;;;15.73;9.40;;;15.10;99.90;;;;;;5067019;28;20206;-51
2023/10/01 07:31:46;;;;;;;13.50;8.70;;;15.10;99.90;;;;;;5066577;28;20217;-42
2023/10/01 07:34:14;;;;;;;16.70;9.70;;;15.20;99.90;;;;;;5067940;28;20191;-44
2023/10/01 07:36:43;;;;;;;13.43;9.40;;;15.20;99.90;;;;;;5053522;28;20206;-44
2023/10/01 07:39:13;;;;;;;13.03;8.53;;;15.30;99.90;;;;;;5055610;28;20394;-46
2023/10/01 07:41:44;;;;;;;13.10;8.60;;;15.30;99.90;;;;;;5032979;28;21715;-43
2023/10/01 07:44:12;;;;;;;14.80;8.70;;;15.40;99.90;;;;;;5059969;28;20202;-46
2023/10/01 07:46:39;;;;;;;12.23;8.80;;;15.40;99.90;;;;;;5063818;28;20182;-45
2023/10/01 07:49:08;;;;;;;14.10;8.53;;;15.40;99.90;;;;;;5059331;28;20221;-43
2023/10/01 07:51:38;;;;;;;11.03;9.43;;;15.50;99.90;;;;;;5050695;28;20357;-42
2023/10/01 07:54:10;;;;;;;13.93;9.13;;;15.50;99.90;;;;;;5054969;28;20211;-46
2023/10/01 07:56:48;;;;;;;13.53;8.90;;;15.60;99.90;;;;;;5059630;28;20298;-43
2023/10/01 07:59:28;;;;;;;20.37;8.13;;;15.50;99.90;;;;;;5039031;28;20209;-48
2023/10/01 08:02:09;;;;;;;11.70;8.90;;;15.60;99.90;;;;;;5063318;28;20682;-43
2023/10/01 08:04:57;;;;;;;12.87;8.13;;;15.70;99.90;;;;;;5061784;28;20251;-46
2023/10/01 08:07:30;;;;;;;14.27;8.33;;;15.70;99.90;;;;;;5043633;28;20226;-47
2023/10/01 08:09:58;;;;;;;13.83;8.70;;;15.80;99.90;;;;;;5061807;28;20195;-46
2023/10/01 08:13:04;;;;;;;14.17;9.17;;;15.80;99.90;;;;;;5019904;28;20374;-45
2023/10/01 08:15:32;;;;;;;10.23;8.37;;;15.80;99.90;;;;;;5061231;28;20331;-45
2023/10/01 08:18:19;;;;;;;13.47;7.73;;;15.80;99.90;;;;;;5059823;28;20712;-42
2023/10/01 08:20:50;;;;;;;10.90;8.07;;;15.80;99.90;;;;;;5064138;28;20199;-42
2023/10/01 08:23:23;;;;;;;14.80;8.33;;;15.90;99.90;;;;;;5054047;28;20721;-44
2023/10/01 08:25:51;;;;;;;8.53;7.30;;;15.90;99.90;;;;;;5053096;28;20199;-42
2023/10/01 08:28:41;;;;;;;12.50;7.83;;;16.10;99.90;;;;;;5019994;28;20223;-45
2023/10/01 08:31:43;;;;;;;11.00;7.17;;;16.10;99.90;;;;;;5052856;28;20569;-47
2023/10/01 08:34:27;;;;;;;12.83;8.03;;;16.20;99.90;;;;;;5048661;28;20218;-47
2023/10/01 08:36:55;;;;;;;9.10;7.70;;;16.20;99.90;;;;;;5055296;28;21717;-42
2023/10/01 08:39:33;;;;;;;12.17;7.40;;;16.20;99.90;;;;;;5045769;28;20233;-47
2023/10/01 08:42:08;;;;;;;10.17;6.97;;;16.20;99.90;;;;;;5039227;28;20963;-44
2023/10/01 08:44:45;;;;;;;8.50;7.07;;;16.30;99.90;;;;;;5035348;28;20193;-42
2023/10/01 08:47:28;;;;;;;12.13;7.47;;;16.30;99.90;;;;;;5058900;28;20218;-47
2023/10/01 08:50:15;;;;;;;12.47;7.50;;;16.30;99.90;;;;;;5064840;28;20206;-43
2023/10/01 08:52:52;;;;;;;9.47;7.33;;;16.40;99.90;;;;;;5054126;28;20261;-43
2023/10/01 08:55:22;;;;;;;10.50;6.53;;;16.50;99.90;;;;;;5060685;28;20229;-47
2023/10/01 08:57:52;;;;;;;7.23;6.47;;;16.50;99.90;;;;;;5053551;28;20313;-43
2023/10/01 09:00:24;;;;;;;9.93;6.90;;;16.60;99.90;;;;;;5031362;28;20915;-44
2023/10/01 09:02:55;;;;;;;10.93;6.53;;;16.60;99.90;;;;;;5067229;28;20202;-43
2023/10/01 09:05:27;;;;;;;10.37;6.57;;;16.60;99.90;;;;;;5063541;28;20272;-44
2023/10/01 09:10:39;;;;;;;9.60;6.67;;;16.80;99.90;;;;;;5062481;28;20206;-46
2023/10/01 09:13:08;;;;;;;9.93;6.03;;;16.80;99.90;;;;;;5064304;28;20223;-45
2023/10/01 09:15:43;;;;;;;8.03;6.03;;;16.90;99.90;;;;;;5035523;28;20208;-43
2023/10/01 09:18:11;;;;;;;7.30;5.70;;;17.00;99.90;;;;;;5066064;28;20214;-44
2023/10/01 09:20:41;;;;;;;7.70;5.87;;;17.00;99.90;;;;;;5064772;28;20260;-46
2023/10/01 09:23:08;;;;;;;10.57;5.43;;;17.00;99.90;;;;;;5064499;28;20711;-47
2023/10/01 09:25:39;;;;;;;8.37;5.63;;;16.90;99.90;;;;;;5057056;28;20277;-48
2023/10/01 09:28:20;;;;;;;7.77;5.83;;;17.00;99.90;;;;;;5064202;28;20260;-45
2023/10/01 09:31:19;;;;;;;9.60;5.53;;;17.10;99.90;;;;;;5043136;28;20293;-42
2023/10/01 09:33:48;;;;;;;8.30;5.10;;;17.10;99.90;;;;;;5065932;28;20805;-46
2023/10/01 09:36:35;;;;;;;8.70;5.30;;;17.20;99.90;;;;;;5064766;28;20191;-45
2023/10/01 09:39:04;;;;;;;8.93;5.70;;;17.20;99.90;;;;;;5057213;28;20218;-43
2023/10/01 09:41:33;;;;;;;7.70;4.73;;;17.40;99.90;;;;;;5062559;28;20187;-48
2023/10/01 09:44:03;;;;;;;8.03;4.47;;;17.40;99.90;;;;;;5067254;28;20226;-45
2023/10/01 09:46:34;;;;;;;8.53;5.33;;;17.40;99.90;;;;;;5025092;28;20197;-46
2023/10/01 09:49:02;;;;;;;6.07;5.10;;;17.50;99.90;;;;;;5066100;28;20610;-46
2023/10/01 09:51:34;;;;;;;8.87;5.30;;;17.60;99.90;;;;;;5065144;28;20194;-44
2023/10/01 09:54:05;;;;;;;9.53;6.00;;;17.50;99.90;;;;;;5067671;28;20214;-45
2023/10/01 09:56:46;;;;;;;11.57;5.97;;;17.60;99.90;;;;;;5055262;28;20201;-43
2023/10/01 09:59:15;;;;;;;12.63;5.70;;;17.50;99.90;;;;;;5060951;28;20321;-46
2023/10/01 10:01:45;;;;;;;10.50;6.00;;;17.40;99.90;;;;;;5032312;28;20206;-49
2023/10/01 10:04:19;;;;;;;9.67;5.40;;;17.40;99.90;;;;;;5069698;28;20676;-48
2023/10/01 10:06:59;;;;;;;9.53;5.93;;;17.50;99.90;;;;;;5072042;28;20194;-45
2023/10/01 10:09:29;;;;;;;14.17;6.13;;;17.40;99.90;;;;;;5052396;28;20198;-47
2023/10/01 10:12:01;;;;;;;10.53;6.57;;;17.40;99.90;;;;;;5069757;28;20198;-43
2023/10/01 10:14:56;;;;;;;11.37;6.47;;;17.40;99.90;;;;;;5070332;28;20285;-47
2023/10/01 10:17:25;;;;;;;10.17;6.20;;;17.40;99.90;;;;;;5025341;28;20796;-43
2023/10/01 10:20:15;;;;;;;10.07;6.77;;;17.40;99.90;;;;;;5070783;28;20204;-47
2023/10/01 10:23:13;;;;;;;12.20;6.93;;;17.40;99.90;;;;;;5057389;28;20226;-46
2023/10/01 10:25:40;;;;;;;8.63;6.30;;;17.30;99.90;;;;;;5056080;28;21517;-46
2023/10/01 10:28:09;;;;;;;9.73;6.07;;;17.30;99.90;;;;;;5064940;28;20206;-46
2023/10/01 10:30:40;;;;;;;9.63;6.10;;;17.30;99.90;;;;;;5055511;28;20199;-45
2023/10/01 10:33:42;;;;;;;10.33;6.57;;;17.30;99.90;;;;;;5035105;28;20617;-45
2023/10/01 10:36:50;;;;;;;8.60;5.30;;;17.40;99.90;;;;;;5063555;28;20205;-46
2023/10/01 10:40:12;;;;;;;9.37;5.20;;;17.50;99.90;;;;;;5062816;28;20190;-44
2023/10/01 10:42:39;;;;;;;8.77;5.10;;;17.60;99.90;;;;;;5058465;28;20299;-43
2023/10/01 10:45:23;;;;;;;11.97;4.83;;;17.80;99.90;;;;;;5065784;28;20753;-44
2023/10/01 10:47:58;;;;;;;7.40;4.23;;;17.90;99.90;;;;;;5035156;28;20226;-43
2023/10/01 10:50:45;;;;;;;7.13;4.20;;;17.90;99.90;;;;;;5062152;28;20883;-45
2023/10/01 10:53:15;;;;;;;9.10;4.37;;;17.90;99.90;;;;;;5065692;28;20223;-49
2023/10/01 10:55:54;;;;;;;8.40;4.43;;;18.00;99.90;;;;;;5065064;28;20186;-46
2023/10/01 10:58:22;;;;;;;7.67;3.80;;;17.90;99.90;;;;;;5050972;28;20218;-45
2023/10/01 11:00:49;;;;;;;8.27;4.00;;;18.00;99.90;;;;;;5070468;28;20201;-43
2023/10/01 11:03:17;;;;;;;7.60;3.83;;;18.00;99.90;;;;;;5040793;28;20202;-47
2023/10/01 11:05:52;;;;;;;10.23;4.07;;;18.10;99.90;;;;;;5073914;28;20744;-43
2023/10/01 11:08:25;;;;;;;8.83;4.13;;;18.10;99.90;;;;;;5072060;28;20218;-45
2023/10/01 11:10:55;;;;;;;5.47;4.30;;;18.10;99.90;;;;;;5066594;28;20205;-43
2023/10/01 11:13:37;;;;;;;8.37;3.90;;;18.20;99.90;;;;;;5054532;28;20250;-45
2023/10/01 11:16:14;;;;;;;6.37;3.00;;;18.30;99.90;;;;;;5069204;28;20206;-46
2023/10/01 11:18:44;;;;;;;6.80;3.53;;;18.30;99.90;;;;;;5034781;28;20275;-42
2023/10/01 11:21:20;;;;;;;11.93;3.73;;;18.40;99.90;;;;;;5068856;28;20251;-47
2023/10/01 11:23:53;;;;;;;8.73;4.10;;;18.50;99.90;;;;;;5067591;28;20194;-43
2023/10/01 11:26:29;;;;;;;7.77;3.97;;;18.60;99.90;;;;;;5054878;28;20186;-49
2023/10/01 11:29:00;;;;;;;6.00;3.50;;;18.60;99.90;;;;;;5058940;28;20226;-43
2023/10/01 11:31:30;;;;;;;9.07;3.77;;;18.70;99.90;;;;;;5063832;28;20248;-43
2023/10/01 11:34:03;;;;;;;8.67;4.33;;;18.70;99.90;;;;;;5066069;28;20222;-43
2023/10/01 11:36:37;;;;;;;7.47;3.33;;;18.70;99.90;;;;;;5035679;28;20201;-43
2023/10/01 11:39:05;;;;;;;6.23;3.90;;;18.60;99.90;;;;;;5066549;28;20218;-46
2023/10/01 11:41:42;;;;;;;7.07;3.87;;;18.60;99.90;;;;;;5061312;28;20289;-45
2023/10/01 11:44:16;;;;;;;8.70;4.43;;;18.40;99.90;;;;;;5054167;28;20286;-45
2023/10/01 11:49:37;;;;;;;9.80;4.63;;;18.30;99.90;;;;;;5086916;27;20670;-43
2023/10/01 11:52:21;;;;;;;8.70;4.03;;;18.30;99.90;;;;;;5121263;27;20207;-47
2023/10/01 11:54:52;;;;;;;11.33;4.50;;;18.10;99.90;;;;;;5119867;27;20212;-44
2023/10/01 11:57:22;;;;;;;11.23;5.60;;;17.90;99.90;;;;;;5099989;28;20270;-46
2023/10/01 11:59:54;;;;;;;11.77;6.70;;;17.80;99.90;;;;;;5097536;28;20190;-46
2023/10/01 12:02:26;;;;;;;16.37;7.70;;;17.70;99.90;;;;;;5082146;28;20208;-48
2023/10/01 12:04:59;;;;;;;9.73;6.07;;;17.60;99.90;;;;;;5099276;28;20270;-43
2023/10/01 12:07:32;;;;;;;9.23;5.43;;;17.60;99.90;;;;;;5065015;28;20850;-44
2023/10/01 12:10:04;;;;;;;12.27;5.70;;;17.60;99.90;;;;;;5099049;28;20201;-47
2023/10/01 12:12:36;;;;;;;10.60;6.30;;;17.60;99.90;;;;;;5095741;28;20289;-47
2023/10/01 12:17:45;;;;;;;12.77;5.83;;;17.40;99.90;;;;;;5097953;28;20224;-44
2023/10/01 12:20:22;;;;;;;9.23;5.90;;;17.30;99.90;;;;;;5082994;28;20209;-46
2023/10/01 12:23:04;;;;;;;13.17;6.97;;;17.30;99.90;;;;;;5098383;28;20204;-44
2023/10/01 12:25:42;;;;;;;10.80;6.37;;;17.20;99.90;;;;;;5094247;28;20920;-47
2023/10/01 12:28:15;;;;;;;9.87;6.53;;;17.10;99.90;;;;;;5097406;28;20197;-44
2023/10/01 12:30:42;;;;;;;10.97;6.90;;;17.00;99.90;;;;;;5088994;28;20203;-45
2023/10/01 12:33:09;;;;;;;14.97;6.97;;;16.90;99.90;;;;;;5096899;28;20201;-48
2023/10/01 12:35:38;;;;;;;9.70;7.13;;;16.80;99.90;;;;;;5096152;28;20192;-45
2023/10/01 12:40:53;;;;;;;12.20;8.03;;;16.60;99.90;;;;;;5098318;28;20276;-46
2023/10/01 12:43:39;;;;;;;15.97;7.67;;;16.50;99.90;;;;;;5095979;28;20202;-44
2023/10/01 12:46:18;;;;;;;14.07;7.97;;;16.50;99.90;;;;;;5090017;28;20194;-47
2023/10/01 12:49:14;;;;;;;13.07;7.20;;;16.40;99.90;;;;;;5097457;28;20258;-45
2023/10/01 12:51:48;;;;;;;13.83;8.17;;;16.40;99.90;;;;;;5095399;28;20886;-47
2023/10/01 12:54:18;;;;;;;10.93;7.33;;;16.40;99.90;;;;;;5067001;28;20251;-45
2023/10/01 12:56:48;;;;;;;11.67;7.83;;;16.40;99.90;;;;;;5097761;28;20221;-47
2023/10/01 12:59:20;;;;;;;11.53;8.43;;;16.50;99.90;;;;;;5091332;28;20567;-45
2023/10/01 13:01:51;;;;;;;14.33;7.97;;;16.50;99.90;;;;;;5084230;28;20213;-46
2023/10/01 13:04:22;;;;;;;11.57;8.33;;;16.60;99.90;;;;;;5080396;28;20199;-45
2023/10/01 13:06:51;;;;;;;15.63;8.20;;;16.60;99.90;;;;;;5084442;28;20198;-43
2023/10/01 13:12:13;;;;;;;10.77;6.97;;;16.50;99.90;;;;;;5080668;28;20194;-43
2023/10/01 13:14:40;;;;;;;12.40;7.50;;;16.50;99.90;;;;;;5082719;28;20250;-47
2023/10/01 13:17:19;;;;;;;10.00;7.00;;;16.50;99.90;;;;;;5083512;28;20200;-50
2023/10/01 13:19:48;;;;;;;9.17;6.97;;;16.50;99.90;;;;;;5083832;28;20682;-46
2023/10/01 13:22:18;;;;;;;7.53;6.60;;;16.40;99.90;;;;;;5082162;28;20197;-46
2023/10/01 13:24:53;;;;;;;7.93;6.47;;;16.40;99.90;;;;;;5058125;28;20301;-46
2023/10/01 13:27:21;;;;;;;9.40;7.60;;;16.40;99.90;;;;;;5081031;28;20221;-46
2023/10/01 13:29:49;;;;;;;10.87;7.70;;;16.30;99.90;;;;;;5083827;28;20233;-44
2023/10/01 13:32:17;;;;;;;8.00;6.87;;;16.30;99.90;;;;;;5073187;28;20279;-49
2023/10/01 13:34:49;;;;;;;8.30;7.33;;;16.20;99.90;;;;;;5076688;28;20206;-46
2023/10/01 13:40:13;;;;;;;8.87;7.73;;;16.20;99.90;;;;;;5046483;28;20205;-43
2023/10/01 14:10:20;;;;;;;12.10;9.20;;;16.10;99.90;;;;;;5049650;28;20208;-47
2023/10/01 14:12:56;;;;;;;11.67;9.27;;;16.10;99.90;;;;;;5082316;28;20273;-43